Terminal Aerodrome Forecast
Issued by NWS

Current Version | Previous Version | Text Only | Print | Product List | Glossary On
Versions: 1 2 3 4 5 6 7 8 9 10 11 12 13 14 15 16 17 18
000
FTUS42 KMLB 011734
TAFSFB
TAF
KSFB 011734Z 0118/0218 10009KT P6SM VCSH SCT025 OVC050
     FM020000 10004KT P6SM SCT030 BKN100
     FM020600 00000KT 3SM BR OVC003
      TEMPO 0209/0213 1/2SM FG VV001
     FM021400 VRB03KT P6SM BKN010
     FM021600 VRB04KT P6SM BKN025=

USA.gov is the U.S. government's official web portal to all federal, state and local government web resources and services.